sensor_id;sensor_type;location;lat;lon;timestamp;P1;durP1;ratioP1;P2;durP2;ratioP2
49582;SDS011;36329;48.816;44.624;2023-08-30T00:00:49;8.1;;;2.5;;
49582;SDS011;36329;48.816;44.624;2023-08-30T00:03:51;7.1;;;2.4;;
49582;SDS011;36329;48.816;44.624;2023-08-30T00:06:53;4.8;;;2.3;;
49582;SDS011;36329;48.816;44.624;2023-08-30T00:12:59;6.9;;;2.5;;
49582;SDS011;36329;48.816;44.624;2023-08-30T00:16:01;8.1;;;2.5;;
49582;SDS011;36329;48.816;44.624;2023-08-30T00:19:03;9.9;;;2.7;;
49582;SDS011;36329;48.816;44.624;2023-08-30T00:22:05;7.7;;;2.9;;
49582;SDS011;36329;48.816;44.624;2023-08-30T00:25:07;9;;;2.7;;
49582;SDS011;36329;48.816;44.624;2023-08-30T00:28:09;11.3;;;3.1;;
49582;SDS011;36329;48.816;44.624;2023-08-30T00:31:11;11.6;;;3;;
49582;SDS011;36329;48.816;44.624;2023-08-30T00:34:13;9.3;;;2.7;;
49582;SDS011;36329;48.816;44.624;2023-08-30T00:37:15;10.3;;;2.8;;
49582;SDS011;36329;48.816;44.624;2023-08-30T00:40:17;9.1;;;2.7;;
49582;SDS011;36329;48.816;44.624;2023-08-30T00:43:19;9.5;;;2.7;;
49582;SDS011;36329;48.816;44.624;2023-08-30T00:46:21;12;;;2.5;;
49582;SDS011;36329;48.816;44.624;2023-08-30T00:49:23;7.4;;;2.5;;
49582;SDS011;36329;48.816;44.624;2023-08-30T00:52:25;8.4;;;2.4;;
49582;SDS011;36329;48.816;44.624;2023-08-30T00:55:27;9.1;;;2.7;;
49582;SDS011;36329;48.816;44.624;2023-08-30T00:58:29;8.5;;;2.1;;
49582;SDS011;36329;48.816;44.624;2023-08-30T01:01:31;8.3;;;2.5;;
49582;SDS011;36329;48.816;44.624;2023-08-30T01:04:33;7.4;;;2.3;;
49582;SDS011;36329;48.816;44.624;2023-08-30T01:07:35;7;;;2.4;;
49582;SDS011;36329;48.816;44.624;2023-08-30T01:10:41;9.1;;;2.3;;
49582;SDS011;36329;48.816;44.624;2023-08-30T01:13:50;5.2;;;2.1;;
49582;SDS011;36329;48.816;44.624;2023-08-30T01:17:08;8;;;2.2;;
49582;SDS011;36329;48.816;44.624;2023-08-30T01:20:12;10.1;;;2.2;;
49582;SDS011;36329;48.816;44.624;2023-08-30T01:23:28;5;;;2.1;;
49582;SDS011;36329;48.816;44.624;2023-08-30T01:26:41;6.8;;;1.9;;
49582;SDS011;36329;48.816;44.624;2023-08-30T01:29:47;6.4;;;2.2;;
49582;SDS011;36329;48.816;44.624;2023-08-30T01:32:50;5.7;;;1.9;;
49582;SDS011;36329;48.816;44.624;2023-08-30T01:35:53;7.9;;;1.9;;
49582;SDS011;36329;48.816;44.624;2023-08-30T01:38:57;5.3;;;1.7;;
49582;SDS011;36329;48.816;44.624;2023-08-30T01:42:00;4.6;;;1.8;;
49582;SDS011;36329;48.816;44.624;2023-08-30T01:45:03;5.1;;;1.8;;
49582;SDS011;36329;48.816;44.624;2023-08-30T01:48:06;7.1;;;2;;
49582;SDS011;36329;48.816;44.624;2023-08-30T01:51:10;6.6;;;1.9;;
49582;SDS011;36329;48.816;44.624;2023-08-30T01:54:13;9.6;;;2.1;;
49582;SDS011;36329;48.816;44.624;2023-08-30T01:57:20;5.2;;;1.7;;
49582;SDS011;36329;48.816;44.624;2023-08-30T02:00:22;6.4;;;2;;
49582;SDS011;36329;48.816;44.624;2023-08-30T02:03:24;5.1;;;1.8;;
49582;SDS011;36329;48.816;44.624;2023-08-30T02:06:27;6.3;;;2;;
49582;SDS011;36329;48.816;44.624;2023-08-30T02:09:36;10.9;;;2.1;;
49582;SDS011;36329;48.816;44.624;2023-08-30T02:12:43;8.5;;;2.4;;
49582;SDS011;36329;48.816;44.624;2023-08-30T02:15:49;7;;;2.3;;
49582;SDS011;36329;48.816;44.624;2023-08-30T02:18:52;8.9;;;2.2;;
49582;SDS011;36329;48.816;44.624;2023-08-30T02:21:54;10.1;;;2.4;;
49582;SDS011;36329;48.816;44.624;2023-08-30T02:24:56;9.8;;;3;;
49582;SDS011;36329;48.816;44.624;2023-08-30T02:27:58;11.4;;;5;;
49582;SDS011;36329;48.816;44.624;2023-08-30T02:31:00;15.1;;;6.1;;
49582;SDS011;36329;48.816;44.624;2023-08-30T02:34:02;16.6;;;6.1;;
49582;SDS011;36329;48.816;44.624;2023-08-30T02:37:04;17.4;;;6.3;;
49582;SDS011;36329;48.816;44.624;2023-08-30T02:40:07;15;;;5.8;;
49582;SDS011;36329;48.816;44.624;2023-08-30T02:43:09;14.8;;;6.9;;
49582;SDS011;36329;48.816;44.624;2023-08-30T02:46:11;24.8;;;8.5;;
49582;SDS011;36329;48.816;44.624;2023-08-30T02:49:13;29;;;11.4;;
49582;SDS011;36329;48.816;44.624;2023-08-30T02:52:14;21.5;;;8;;
49582;SDS011;36329;48.816;44.624;2023-08-30T02:55:16;19;;;5.6;;
49582;SDS011;36329;48.816;44.624;2023-08-30T02:58:18;13.3;;;4.4;;
49582;SDS011;36329;48.816;44.624;2023-08-30T03:01:20;11;;;3.8;;
49582;SDS011;36329;48.816;44.624;2023-08-30T03:04:22;11.5;;;3.3;;
49582;SDS011;36329;48.816;44.624;2023-08-30T03:07:24;10.7;;;3.8;;
49582;SDS011;36329;48.816;44.624;2023-08-30T03:10:26;8.8;;;3;;
49582;SDS011;36329;48.816;44.624;2023-08-30T03:13:28;7.2;;;2.6;;
49582;SDS011;36329;48.816;44.624;2023-08-30T03:16:30;10.7;;;3.3;;
49582;SDS011;36329;48.816;44.624;2023-08-30T03:19:32;10.1;;;2.9;;
49582;SDS011;36329;48.816;44.624;2023-08-30T03:22:34;8.4;;;2.8;;
49582;SDS011;36329;48.816;44.624;2023-08-30T03:25:36;8.6;;;2.7;;
49582;SDS011;36329;48.816;44.624;2023-08-30T03:28:38;8.1;;;2.6;;
49582;SDS011;36329;48.816;44.624;2023-08-30T03:31:40;6.6;;;2.6;;
49582;SDS011;36329;48.816;44.624;2023-08-30T03:34:43;7.2;;;2.5;;
49582;SDS011;36329;48.816;44.624;2023-08-30T03:37:45;6.6;;;2.7;;
49582;SDS011;36329;48.816;44.624;2023-08-30T03:40:52;9.6;;;2.5;;
49582;SDS011;36329;48.816;44.624;2023-08-30T03:43:54;11.2;;;2.9;;
49582;SDS011;36329;48.816;44.624;2023-08-30T03:46:56;13.5;;;2.8;;
49582;SDS011;36329;48.816;44.624;2023-08-30T03:49:58;11.7;;;3.6;;
49582;SDS011;36329;48.816;44.624;2023-08-30T03:53:00;9.7;;;3.5;;
49582;SDS011;36329;48.816;44.624;2023-08-30T03:56:02;10.7;;;3.7;;
49582;SDS011;36329;48.816;44.624;2023-08-30T03:59:04;9.7;;;3.2;;
49582;SDS011;36329;48.816;44.624;2023-08-30T04:02:06;8.9;;;2.9;;
49582;SDS011;36329;48.816;44.624;2023-08-30T04:05:08;11.3;;;2.8;;
49582;SDS011;36329;48.816;44.624;2023-08-30T04:08:10;9.6;;;2.8;;
49582;SDS011;36329;48.816;44.624;2023-08-30T04:11:12;12.1;;;2.9;;
49582;SDS011;36329;48.816;44.624;2023-08-30T04:14:14;10.9;;;2.9;;
49582;SDS011;36329;48.816;44.624;2023-08-30T04:17:16;5.4;;;2.7;;
49582;SDS011;36329;48.816;44.624;2023-08-30T04:20:18;11.5;;;2.8;;
49582;SDS011;36329;48.816;44.624;2023-08-30T04:23:20;8.5;;;2.8;;
49582;SDS011;36329;48.816;44.624;2023-08-30T04:26:22;8.5;;;2.6;;
49582;SDS011;36329;48.816;44.624;2023-08-30T04:29:24;13.6;;;3;;
49582;SDS011;36329;48.816;44.624;2023-08-30T04:32:25;12.2;;;2.7;;
49582;SDS011;36329;48.816;44.624;2023-08-30T04:35:27;10.2;;;2.6;;
49582;SDS011;36329;48.816;44.624;2023-08-30T04:38:29;7.9;;;2.6;;
49582;SDS011;36329;48.816;44.624;2023-08-30T04:41:31;16;;;3;;
49582;SDS011;36329;48.816;44.624;2023-08-30T04:44:33;11.1;;;2.7;;
49582;SDS011;36329;48.816;44.624;2023-08-30T04:47:35;15;;;3.1;;
49582;SDS011;36329;48.816;44.624;2023-08-30T04:50:38;18.9;;;3.2;;
49582;SDS011;36329;48.816;44.624;2023-08-30T04:53:40;17.7;;;3.8;;
49582;SDS011;36329;48.816;44.624;2023-08-30T04:56:42;13.2;;;3.7;;
49582;SDS011;36329;48.816;44.624;2023-08-30T04:59:44;12.3;;;3.9;;
49582;SDS011;36329;48.816;44.624;2023-08-30T05:02:47;12.5;;;4;;
49582;SDS011;36329;48.816;44.624;2023-08-30T05:05:49;12.8;;;3.6;;
49582;SDS011;36329;48.816;44.624;2023-08-30T05:08:51;7.7;;;3.7;;
49582;SDS011;36329;48.816;44.624;2023-08-30T05:11:53;15.5;;;4.1;;
49582;SDS011;36329;48.816;44.624;2023-08-30T05:14:55;9.7;;;3.5;;
49582;SDS011;36329;48.816;44.624;2023-08-30T05:17:57;11.6;;;3.7;;
49582;SDS011;36329;48.816;44.624;2023-08-30T05:20:59;11.1;;;3.5;;
49582;SDS011;36329;48.816;44.624;2023-08-30T05:24:01;11.1;;;3.4;;
49582;SDS011;36329;48.816;44.624;2023-08-30T05:27:03;9.5;;;3.4;;
49582;SDS011;36329;48.816;44.624;2023-08-30T05:30:05;6.8;;;3.1;;
49582;SDS011;36329;48.816;44.624;2023-08-30T05:33:08;5.1;;;2.6;;
49582;SDS011;36329;48.816;44.624;2023-08-30T05:36:10;8.2;;;2.6;;
49582;SDS011;36329;48.816;44.624;2023-08-30T05:39:12;5.5;;;2.8;;
49582;SDS011;36329;48.816;44.624;2023-08-30T05:42:13;6.9;;;2.4;;
49582;SDS011;36329;48.816;44.624;2023-08-30T05:45:16;7.2;;;2.8;;
49582;SDS011;36329;48.816;44.624;2023-08-30T05:48:18;7.3;;;2.8;;
49582;SDS011;36329;48.816;44.624;2023-08-30T05:51:20;5.4;;;2.6;;
49582;SDS011;36329;48.816;44.624;2023-08-30T05:54:22;8.1;;;2.6;;
49582;SDS011;36329;48.816;44.624;2023-08-30T05:57:24;6;;;2.4;;
49582;SDS011;36329;48.816;44.624;2023-08-30T06:00:26;6.6;;;2.3;;
49582;SDS011;36329;48.816;44.624;2023-08-30T06:03:28;6.8;;;2.3;;
49582;SDS011;36329;48.816;44.624;2023-08-30T06:06:30;4.7;;;2.3;;
49582;SDS011;36329;48.816;44.624;2023-08-30T06:09:32;6.5;;;2.4;;
49582;SDS011;36329;48.816;44.624;2023-08-30T06:12:34;6.2;;;2.4;;
49582;SDS011;36329;48.816;44.624;2023-08-30T06:15:36;6.4;;;2.3;;
49582;SDS011;36329;48.816;44.624;2023-08-30T06:18:38;7.1;;;2.2;;
49582;SDS011;36329;48.816;44.624;2023-08-30T06:21:40;5.6;;;2.2;;
49582;SDS011;36329;48.816;44.624;2023-08-30T06:24:42;4.5;;;2;;
49582;SDS011;36329;48.816;44.624;2023-08-30T06:27:55;3.8;;;1.9;;
49582;SDS011;36329;48.816;44.624;2023-08-30T06:30:58;4.4;;;1.7;;
49582;SDS011;36329;48.816;44.624;2023-08-30T06:34:00;5.3;;;1.7;;
49582;SDS011;36329;48.816;44.624;2023-08-30T06:37:02;5.4;;;2;;
49582;SDS011;36329;48.816;44.624;2023-08-30T06:40:04;3.3;;;1.6;;
49582;SDS011;36329;48.816;44.624;2023-08-30T06:43:07;4.3;;;1.7;;
49582;SDS011;36329;48.816;44.624;2023-08-30T06:46:09;4;;;1.6;;
49582;SDS011;36329;48.816;44.624;2023-08-30T06:49:11;2.6;;;1.7;;
49582;SDS011;36329;48.816;44.624;2023-08-30T06:52:13;4.4;;;1.7;;
49582;SDS011;36329;48.816;44.624;2023-08-30T06:55:15;6.2;;;2.1;;
49582;SDS011;36329;48.816;44.624;2023-08-30T06:58:16;3.8;;;2;;
49582;SDS011;36329;48.816;44.624;2023-08-30T07:01:18;4.8;;;1.8;;
49582;SDS011;36329;48.816;44.624;2023-08-30T07:04:20;5.6;;;1.9;;
49582;SDS011;36329;48.816;44.624;2023-08-30T07:07:23;3.3;;;1.8;;
49582;SDS011;36329;48.816;44.624;2023-08-30T07:10:25;4;;;1.9;;
49582;SDS011;36329;48.816;44.624;2023-08-30T07:13:26;5.6;;;2.1;;
49582;SDS011;36329;48.816;44.624;2023-08-30T07:16:29;4.7;;;2.1;;
49582;SDS011;36329;48.816;44.624;2023-08-30T07:19:30;4.1;;;1.8;;
49582;SDS011;36329;48.816;44.624;2023-08-30T07:22:32;4.7;;;2;;
49582;SDS011;36329;48.816;44.624;2023-08-30T07:25:34;3.8;;;2.2;;
49582;SDS011;36329;48.816;44.624;2023-08-30T07:28:36;5.3;;;2.1;;
49582;SDS011;36329;48.816;44.624;2023-08-30T07:31:39;7.5;;;2.5;;
49582;SDS011;36329;48.816;44.624;2023-08-30T07:34:40;4.7;;;2.3;;
49582;SDS011;36329;48.816;44.624;2023-08-30T07:37:42;4.8;;;2.3;;
49582;SDS011;36329;48.816;44.624;2023-08-30T07:40:44;4.2;;;1.9;;
49582;SDS011;36329;48.816;44.624;2023-08-30T07:43:46;5.9;;;2.3;;
49582;SDS011;36329;48.816;44.624;2023-08-30T07:46:48;6.1;;;2;;
49582;SDS011;36329;48.816;44.624;2023-08-30T07:49:50;6.3;;;2.3;;
49582;SDS011;36329;48.816;44.624;2023-08-30T07:52:52;4.5;;;2;;
49582;SDS011;36329;48.816;44.624;2023-08-30T07:55:54;4.9;;;1.9;;
49582;SDS011;36329;48.816;44.624;2023-08-30T07:58:56;5.6;;;1.9;;
49582;SDS011;36329;48.816;44.624;2023-08-30T08:01:58;5.6;;;1.9;;
49582;SDS011;36329;48.816;44.624;2023-08-30T08:05:00;6.5;;;1.9;;
49582;SDS011;36329;48.816;44.624;2023-08-30T08:08:03;53.3;;;3.7;;
49582;SDS011;36329;48.816;44.624;2023-08-30T08:11:05;8.7;;;2.2;;
49582;SDS011;36329;48.816;44.624;2023-08-30T08:14:07;6;;;1.6;;
49582;SDS011;36329;48.816;44.624;2023-08-30T08:17:09;4.6;;;1.8;;
49582;SDS011;36329;48.816;44.624;2023-08-30T08:20:11;3.8;;;1.7;;
49582;SDS011;36329;48.816;44.624;2023-08-30T08:23:13;4.1;;;1.8;;
49582;SDS011;36329;48.816;44.624;2023-08-30T08:26:14;3.8;;;1.7;;
49582;SDS011;36329;48.816;44.624;2023-08-30T08:29:16;6.7;;;1.8;;
49582;SDS011;36329;48.816;44.624;2023-08-30T08:32:19;3.8;;;1.9;;
49582;SDS011;36329;48.816;44.624;2023-08-30T08:35:20;4.6;;;1.8;;
49582;SDS011;36329;48.816;44.624;2023-08-30T08:38:22;3.4;;;1.6;;
49582;SDS011;36329;48.816;44.624;2023-08-30T08:41:24;7.4;;;2;;
49582;SDS011;36329;48.816;44.624;2023-08-30T08:44:33;8.4;;;2.1;;
49582;SDS011;36329;48.816;44.624;2023-08-30T08:47:36;13.8;;;2.8;;
49582;SDS011;36329;48.816;44.624;2023-08-30T08:50:39;7.4;;;2.3;;
49582;SDS011;36329;48.816;44.624;2023-08-30T08:53:41;11.4;;;3.7;;
49582;SDS011;36329;48.816;44.624;2023-08-30T08:56:44;5;;;2.1;;
49582;SDS011;36329;48.816;44.624;2023-08-30T08:59:47;8;;;2;;
49582;SDS011;36329;48.816;44.624;2023-08-30T09:02:49;4.1;;;1.5;;
49582;SDS011;36329;48.816;44.624;2023-08-30T09:05:52;4.9;;;1.6;;
49582;SDS011;36329;48.816;44.624;2023-08-30T09:08:54;5.2;;;1.7;;
49582;SDS011;36329;48.816;44.624;2023-08-30T09:11:56;6.4;;;1.9;;
49582;SDS011;36329;48.816;44.624;2023-08-30T09:14:58;3.8;;;1.7;;
49582;SDS011;36329;48.816;44.624;2023-08-30T09:18:00;4.2;;;1.8;;
49582;SDS011;36329;48.816;44.624;2023-08-30T09:21:05;5.3;;;1.7;;
49582;SDS011;36329;48.816;44.624;2023-08-30T09:24:07;4.3;;;1.7;;
49582;SDS011;36329;48.816;44.624;2023-08-30T09:27:09;3.5;;;1.4;;
49582;SDS011;36329;48.816;44.624;2023-08-30T09:30:11;3.8;;;1.4;;
49582;SDS011;36329;48.816;44.624;2023-08-30T09:33:13;3.1;;;1.5;;
49582;SDS011;36329;48.816;44.624;2023-08-30T09:36:18;3.7;;;1.5;;
49582;SDS011;36329;48.816;44.624;2023-08-30T09:39:21;2.7;;;1.5;;
49582;SDS011;36329;48.816;44.624;2023-08-30T09:42:23;3.7;;;1.6;;
49582;SDS011;36329;48.816;44.624;2023-08-30T09:45:26;4.3;;;1.5;;
49582;SDS011;36329;48.816;44.624;2023-08-30T09:48:28;4.3;;;1.6;;
49582;SDS011;36329;48.816;44.624;2023-08-30T09:51:30;5.2;;;2;;
49582;SDS011;36329;48.816;44.624;2023-08-30T09:54:34;3.7;;;1.5;;
49582;SDS011;36329;48.816;44.624;2023-08-30T09:57:37;2.2;;;1.3;;
49582;SDS011;36329;48.816;44.624;2023-08-30T10:00:40;3.8;;;1.3;;
49582;SDS011;36329;48.816;44.624;2023-08-30T10:03:42;4.3;;;1.5;;
49582;SDS011;36329;48.816;44.624;2023-08-30T10:06:44;5.3;;;1.6;;
49582;SDS011;36329;48.816;44.624;2023-08-30T10:09:47;4.3;;;1.5;;
49582;SDS011;36329;48.816;44.624;2023-08-30T10:12:49;4.6;;;1.3;;
49582;SDS011;36329;48.816;44.624;2023-08-30T10:15:52;3.8;;;1.4;;
49582;SDS011;36329;48.816;44.624;2023-08-30T10:19:01;4.5;;;1.5;;
49582;SDS011;36329;48.816;44.624;2023-08-30T10:22:05;3.3;;;1.4;;
49582;SDS011;36329;48.816;44.624;2023-08-30T10:25:15;9.5;;;1.5;;
49582;SDS011;36329;48.816;44.624;2023-08-30T10:28:23;5.2;;;1.5;;
49582;SDS011;36329;48.816;44.624;2023-08-30T10:31:27;4.6;;;1.6;;
49582;SDS011;36329;48.816;44.624;2023-08-30T10:34:36;5.1;;;1.3;;
49582;SDS011;36329;48.816;44.624;2023-08-30T10:37:38;3.1;;;1.2;;
49582;SDS011;36329;48.816;44.624;2023-08-30T10:40:44;3.2;;;1.5;;
49582;SDS011;36329;48.816;44.624;2023-08-30T10:43:49;3.5;;;1.8;;
49582;SDS011;36329;48.816;44.624;2023-08-30T10:46:52;4.9;;;1.5;;
49582;SDS011;36329;48.816;44.624;2023-08-30T10:49:55;4.5;;;1.6;;
49582;SDS011;36329;48.816;44.624;2023-08-30T10:52:58;4.2;;;1.6;;
49582;SDS011;36329;48.816;44.624;2023-08-30T10:56:03;3.1;;;1.8;;
49582;SDS011;36329;48.816;44.624;2023-08-30T10:59:15;4.2;;;1.6;;
49582;SDS011;36329;48.816;44.624;2023-08-30T11:02:18;4.1;;;1.6;;
49582;SDS011;36329;48.816;44.624;2023-08-30T11:05:23;3.6;;;1.3;;
49582;SDS011;36329;48.816;44.624;2023-08-30T11:08:26;4.1;;;1.5;;
49582;SDS011;36329;48.816;44.624;2023-08-30T11:11:30;1.6;;;1.2;;
49582;SDS011;36329;48.816;44.624;2023-08-30T11:14:32;4.9;;;1.5;;
49582;SDS011;36329;48.816;44.624;2023-08-30T11:17:34;4;;;1.4;;
49582;SDS011;36329;48.816;44.624;2023-08-30T11:20:36;2.8;;;1.4;;
49582;SDS011;36329;48.816;44.624;2023-08-30T11:23:38;3.4;;;1.6;;
49582;SDS011;36329;48.816;44.624;2023-08-30T11:26:40;5.3;;;1.6;;
49582;SDS011;36329;48.816;44.624;2023-08-30T11:29:42;4.9;;;1.6;;
49582;SDS011;36329;48.816;44.624;2023-08-30T11:32:44;4.9;;;1.6;;
49582;SDS011;36329;48.816;44.624;2023-08-30T11:35:48;3.7;;;1.7;;
49582;SDS011;36329;48.816;44.624;2023-08-30T11:38:51;2.9;;;1.7;;
49582;SDS011;36329;48.816;44.624;2023-08-30T11:41:54;4.4;;;1.7;;
49582;SDS011;36329;48.816;44.624;2023-08-30T11:44:57;4.7;;;1.8;;
49582;SDS011;36329;48.816;44.624;2023-08-30T11:47:59;4.5;;;1.7;;
49582;SDS011;36329;48.816;44.624;2023-08-30T11:51:02;4.7;;;1.6;;
49582;SDS011;36329;48.816;44.624;2023-08-30T11:54:04;4.7;;;1.6;;
49582;SDS011;36329;48.816;44.624;2023-08-30T11:57:08;5.4;;;1.6;;
49582;SDS011;36329;48.816;44.624;2023-08-30T12:00:11;5.1;;;1.8;;
49582;SDS011;36329;48.816;44.624;2023-08-30T12:03:15;2.9;;;1.6;;
49582;SDS011;36329;48.816;44.624;2023-08-30T12:06:17;5.1;;;1.5;;
49582;SDS011;36329;48.816;44.624;2023-08-30T12:09:19;6.3;;;1.6;;
49582;SDS011;36329;48.816;44.624;2023-08-30T12:12:23;3;;;1.6;;
49582;SDS011;36329;48.816;44.624;2023-08-30T12:15:25;4.4;;;1.6;;
49582;SDS011;36329;48.816;44.624;2023-08-30T12:18:27;2.3;;;1.3;;
49582;SDS011;36329;48.816;44.624;2023-08-30T12:21:31;6;;;2.1;;
49582;SDS011;36329;48.816;44.624;2023-08-30T12:24:42;5.4;;;1.8;;
49582;SDS011;36329;48.816;44.624;2023-08-30T12:27:45;4.9;;;1.9;;
49582;SDS011;36329;48.816;44.624;2023-08-30T12:30:47;4.9;;;1.5;;
49582;SDS011;36329;48.816;44.624;2023-08-30T12:33:49;3.1;;;1.3;;
49582;SDS011;36329;48.816;44.624;2023-08-30T12:36:51;4.5;;;1.7;;
49582;SDS011;36329;48.816;44.624;2023-08-30T12:39:53;6.5;;;1.6;;
49582;SDS011;36329;48.816;44.624;2023-08-30T12:42:55;5.3;;;1.7;;
49582;SDS011;36329;48.816;44.624;2023-08-30T12:45:56;3.8;;;1.6;;
49582;SDS011;36329;48.816;44.624;2023-08-30T12:48:58;3.9;;;1.4;;
49582;SDS011;36329;48.816;44.624;2023-08-30T12:52:00;7.6;;;1.9;;
49582;SDS011;36329;48.816;44.624;2023-08-30T12:55:02;3.4;;;1.4;;
49582;SDS011;36329;48.816;44.624;2023-08-30T12:58:05;6.6;;;1.6;;
49582;SDS011;36329;48.816;44.624;2023-08-30T13:01:08;4.7;;;1.6;;
49582;SDS011;36329;48.816;44.624;2023-08-30T13:04:10;9.1;;;1.7;;
49582;SDS011;36329;48.816;44.624;2023-08-30T13:07:12;6;;;2.2;;
49582;SDS011;36329;48.816;44.624;2023-08-30T13:10:14;5.1;;;1.6;;
49582;SDS011;36329;48.816;44.624;2023-08-30T13:13:16;4.7;;;1.6;;
49582;SDS011;36329;48.816;44.624;2023-08-30T13:16:18;2.6;;;1.6;;
49582;SDS011;36329;48.816;44.624;2023-08-30T13:19:19;3.9;;;1.5;;
49582;SDS011;36329;48.816;44.624;2023-08-30T13:22:21;4;;;1.6;;
49582;SDS011;36329;48.816;44.624;2023-08-30T13:25:24;8.3;;;1.5;;
49582;SDS011;36329;48.816;44.624;2023-08-30T13:28:27;5.1;;;1.5;;
49582;SDS011;36329;48.816;44.624;2023-08-30T13:31:30;2.5;;;1.4;;
49582;SDS011;36329;48.816;44.624;2023-08-30T13:34:32;5.4;;;2.1;;
49582;SDS011;36329;48.816;44.624;2023-08-30T13:37:34;4.3;;;1.8;;
49582;SDS011;36329;48.816;44.624;2023-08-30T13:40:36;7.1;;;1.9;;
49582;SDS011;36329;48.816;44.624;2023-08-30T13:43:38;4.9;;;1.5;;
49582;SDS011;36329;48.816;44.624;2023-08-30T13:46:40;5.5;;;1.7;;
49582;SDS011;36329;48.816;44.624;2023-08-30T13:49:42;5.5;;;1.6;;
49582;SDS011;36329;48.816;44.624;2023-08-30T13:52:44;5.1;;;1.7;;
49582;SDS011;36329;48.816;44.624;2023-08-30T13:55:46;4.2;;;1.5;;
49582;SDS011;36329;48.816;44.624;2023-08-30T13:58:48;5.8;;;1.8;;
49582;SDS011;36329;48.816;44.624;2023-08-30T14:01:50;4.4;;;1.6;;
49582;SDS011;36329;48.816;44.624;2023-08-30T14:04:52;5;;;1.7;;
49582;SDS011;36329;48.816;44.624;2023-08-30T14:07:54;7.8;;;1.7;;
49582;SDS011;36329;48.816;44.624;2023-08-30T14:10:56;3.5;;;1.6;;
49582;SDS011;36329;48.816;44.624;2023-08-30T14:13:58;4.1;;;1.7;;
49582;SDS011;36329;48.816;44.624;2023-08-30T14:17:00;6.5;;;1.8;;
49582;SDS011;36329;48.816;44.624;2023-08-30T14:20:02;2.2;;;1.5;;
49582;SDS011;36329;48.816;44.624;2023-08-30T14:23:04;6.7;;;1.9;;
49582;SDS011;36329;48.816;44.624;2023-08-30T14:26:07;3.6;;;1.7;;
49582;SDS011;36329;48.816;44.624;2023-08-30T14:29:09;4.9;;;2;;
49582;SDS011;36329;48.816;44.624;2023-08-30T14:32:11;12.8;;;2.3;;
49582;SDS011;36329;48.816;44.624;2023-08-30T14:35:13;3.5;;;1.7;;
49582;SDS011;36329;48.816;44.624;2023-08-30T14:38:14;3.7;;;1.7;;
49582;SDS011;36329;48.816;44.624;2023-08-30T14:41:16;17;;;5;;
49582;SDS011;36329;48.816;44.624;2023-08-30T14:44:18;4.6;;;1.9;;
49582;SDS011;36329;48.816;44.624;2023-08-30T14:47:22;6.7;;;2.3;;
49582;SDS011;36329;48.816;44.624;2023-08-30T14:50:24;7.2;;;2.4;;
49582;SDS011;36329;48.816;44.624;2023-08-30T14:53:25;4.1;;;2;;
49582;SDS011;36329;48.816;44.624;2023-08-30T14:56:28;7.6;;;2.2;;
49582;SDS011;36329;48.816;44.624;2023-08-30T14:59:30;7.7;;;2.1;;
49582;SDS011;36329;48.816;44.624;2023-08-30T15:02:32;8;;;2.1;;
49582;SDS011;36329;48.816;44.624;2023-08-30T15:05:35;7.7;;;1.9;;
49582;SDS011;36329;48.816;44.624;2023-08-30T15:08:40;5.6;;;1.4;;
49582;SDS011;36329;48.816;44.624;2023-08-30T15:11:44;7.5;;;1.9;;
49582;SDS011;36329;48.816;44.624;2023-08-30T15:14:50;4.8;;;1.5;;
49582;SDS011;36329;48.816;44.624;2023-08-30T15:17:52;6.8;;;3.4;;
49582;SDS011;36329;48.816;44.624;2023-08-30T15:20:54;3.8;;;1.6;;
49582;SDS011;36329;48.816;44.624;2023-08-30T15:23:57;7.8;;;2.8;;
49582;SDS011;36329;48.816;44.624;2023-08-30T15:26:59;9.9;;;2.9;;
49582;SDS011;36329;48.816;44.624;2023-08-30T15:30:02;10;;;3.3;;
49582;SDS011;36329;48.816;44.624;2023-08-30T15:33:07;5.3;;;2.1;;
49582;SDS011;36329;48.816;44.624;2023-08-30T15:36:09;20.6;;;3.3;;
49582;SDS011;36329;48.816;44.624;2023-08-30T15:39:13;11.9;;;2.9;;
49582;SDS011;36329;48.816;44.624;2023-08-30T15:42:15;16.7;;;2.6;;
49582;SDS011;36329;48.816;44.624;2023-08-30T15:45:17;12.6;;;2.6;;
49582;SDS011;36329;48.816;44.624;2023-08-30T15:48:19;12;;;3;;
49582;SDS011;36329;48.816;44.624;2023-08-30T15:51:21;16;;;3.3;;
49582;SDS011;36329;48.816;44.624;2023-08-30T15:54:23;22;;;3.8;;
49582;SDS011;36329;48.816;44.624;2023-08-30T15:57:25;20.9;;;3.4;;
49582;SDS011;36329;48.816;44.624;2023-08-30T16:00:27;17.7;;;3.4;;
49582;SDS011;36329;48.816;44.624;2023-08-30T16:03:29;13.9;;;3.4;;
49582;SDS011;36329;48.816;44.624;2023-08-30T16:06:31;26.7;;;3.6;;
49582;SDS011;36329;48.816;44.624;2023-08-30T16:09:33;16.7;;;4.6;;
49582;SDS011;36329;48.816;44.624;2023-08-30T16:12:35;13.7;;;3.5;;
49582;SDS011;36329;48.816;44.624;2023-08-30T16:15:37;11.7;;;3.2;;
49582;SDS011;36329;48.816;44.624;2023-08-30T16:18:39;16.4;;;3.3;;
49582;SDS011;36329;48.816;44.624;2023-08-30T16:21:41;13.7;;;3.3;;
49582;SDS011;36329;48.816;44.624;2023-08-30T16:24:43;15;;;4.4;;
49582;SDS011;36329;48.816;44.624;2023-08-30T16:27:45;17;;;4.2;;
49582;SDS011;36329;48.816;44.624;2023-08-30T16:30:47;21.7;;;4.7;;
49582;SDS011;36329;48.816;44.624;2023-08-30T16:33:49;23.6;;;4.1;;
49582;SDS011;36329;48.816;44.624;2023-08-30T16:36:51;15.6;;;3.8;;
49582;SDS011;36329;48.816;44.624;2023-08-30T16:39:53;26.2;;;4.6;;
49582;SDS011;36329;48.816;44.624;2023-08-30T16:42:55;29.5;;;5.1;;
49582;SDS011;36329;48.816;44.624;2023-08-30T16:45:57;22.2;;;5.1;;
49582;SDS011;36329;48.816;44.624;2023-08-30T16:48:59;17.4;;;4.7;;
49582;SDS011;36329;48.816;44.624;2023-08-30T16:52:01;25.1;;;5;;
49582;SDS011;36329;48.816;44.624;2023-08-30T16:55:04;21;;;4.6;;
49582;SDS011;36329;48.816;44.624;2023-08-30T16:58:06;20.1;;;4.5;;
49582;SDS011;36329;48.816;44.624;2023-08-30T17:01:08;23.5;;;5;;
49582;SDS011;36329;48.816;44.624;2023-08-30T17:04:10;22.8;;;5.8;;
49582;SDS011;36329;48.816;44.624;2023-08-30T17:07:12;25.3;;;5.3;;
49582;SDS011;36329;48.816;44.624;2023-08-30T17:10:14;22.5;;;5.6;;
49582;SDS011;36329;48.816;44.624;2023-08-30T17:13:16;22.9;;;5.7;;
49582;SDS011;36329;48.816;44.624;2023-08-30T17:16:19;14.9;;;4.6;;
49582;SDS011;36329;48.816;44.624;2023-08-30T17:19:21;20;;;5;;
49582;SDS011;36329;48.816;44.624;2023-08-30T17:22:23;34.2;;;6.6;;
49582;SDS011;36329;48.816;44.624;2023-08-30T17:25:25;25.2;;;6.4;;
49582;SDS011;36329;48.816;44.624;2023-08-30T17:28:27;26.4;;;7.5;;
49582;SDS011;36329;48.816;44.624;2023-08-30T17:31:29;38.2;;;7.6;;
49582;SDS011;36329;48.816;44.624;2023-08-30T17:34:31;32.7;;;9.9;;
49582;SDS011;36329;48.816;44.624;2023-08-30T17:37:33;42.1;;;18.3;;
49582;SDS011;36329;48.816;44.624;2023-08-30T17:40:35;57.5;;;17.5;;
49582;SDS011;36329;48.816;44.624;2023-08-30T17:43:37;37.3;;;14.6;;
49582;SDS011;36329;48.816;44.624;2023-08-30T17:46:40;30.9;;;12.1;;
49582;SDS011;36329;48.816;44.624;2023-08-30T17:49:42;26.5;;;10.1;;
49582;SDS011;36329;48.816;44.624;2023-08-30T17:52:44;27.4;;;8.8;;
49582;SDS011;36329;48.816;44.624;2023-08-30T17:55:52;27.8;;;7.2;;
49582;SDS011;36329;48.816;44.624;2023-08-30T17:58:56;19.7;;;5.7;;
49582;SDS011;36329;48.816;44.624;2023-08-30T18:01:58;22.9;;;5.6;;
49582;SDS011;36329;48.816;44.624;2023-08-30T18:05:00;20.5;;;5.1;;
49582;SDS011;36329;48.816;44.624;2023-08-30T18:08:02;17.6;;;4.5;;
49582;SDS011;36329;48.816;44.624;2023-08-30T18:11:10;17.3;;;5.4;;
49582;SDS011;36329;48.816;44.624;2023-08-30T18:14:13;22.4;;;5.5;;
49582;SDS011;36329;48.816;44.624;2023-08-30T18:17:16;13.9;;;4.6;;
49582;SDS011;36329;48.816;44.624;2023-08-30T18:20:18;15.7;;;4.6;;
49582;SDS011;36329;48.816;44.624;2023-08-30T18:23:20;21.8;;;4.4;;
49582;SDS011;36329;48.816;44.624;2023-08-30T18:26:22;16.9;;;4;;
49582;SDS011;36329;48.816;44.624;2023-08-30T18:29:24;18.5;;;3.8;;
49582;SDS011;36329;48.816;44.624;2023-08-30T18:32:26;11.8;;;3.4;;
49582;SDS011;36329;48.816;44.624;2023-08-30T18:35:28;12.4;;;3.3;;
49582;SDS011;36329;48.816;44.624;2023-08-30T18:38:30;13;;;3.5;;
49582;SDS011;36329;48.816;44.624;2023-08-30T18:41:32;14.9;;;3.5;;